createdAt,value
2023-04-11T00:00:32.357Z,989.52
2023-04-11T00:01:32.389Z,989.49
2023-04-11T00:02:32.481Z,989.51
2023-04-11T00:03:32.406Z,989.56
2023-04-11T00:04:32.382Z,989.57
2023-04-11T00:05:32.305Z,989.51
2023-04-11T00:06:32.274Z,989.52
2023-04-11T00:07:32.246Z,989.49
2023-04-11T00:08:32.239Z,989.55
2023-04-11T00:09:32.216Z,989.45
2023-04-11T00:10:32.210Z,989.47
2023-04-11T00:11:32.192Z,989.50
2023-04-11T00:12:32.174Z,989.57
2023-04-11T00:13:32.154Z,989.47
2023-04-11T00:14:32.146Z,989.41
2023-04-11T00:15:32.124Z,989.35
2023-04-11T00:16:32.165Z,989.41
2023-04-11T00:17:32.129Z,989.43
2023-04-11T00:18:32.096Z,989.48
2023-04-11T00:19:32.071Z,989.50
2023-04-11T00:20:32.048Z,989.49
2023-04-11T00:21:32.029Z,989.57
2023-04-11T00:22:32.018Z,989.54
2023-04-11T00:23:32.001Z,989.51
2023-04-11T00:24:31.985Z,989.50
2023-04-11T00:25:31.970Z,989.51
2023-04-11T00:26:31.968Z,989.49
2023-04-11T00:27:31.945Z,989.39
2023-04-11T00:28:31.926Z,989.67
2023-04-11T00:29:31.911Z,989.73
2023-04-11T00:30:31.902Z,989.76
2023-04-11T00:31:31.888Z,989.75
2023-04-11T00:32:31.877Z,989.72
2023-04-11T00:33:31.852Z,989.60
2023-04-11T00:34:31.831Z,989.52
2023-04-11T00:35:31.837Z,989.45
2023-04-11T00:36:31.921Z,989.34
2023-04-11T00:37:31.785Z,989.32
2023-04-11T00:38:31.777Z,989.33
2023-04-11T00:39:31.755Z,989.31
2023-04-11T00:40:31.759Z,989.33
2023-04-11T00:41:31.722Z,989.37
2023-04-11T00:42:31.812Z,989.47
2023-04-11T00:43:31.690Z,989.56
2023-04-11T00:44:31.681Z,989.60
2023-04-11T00:45:31.698Z,989.72
2023-04-11T00:46:31.658Z,989.73
2023-04-11T00:47:31.644Z,989.76
2023-04-11T00:48:31.621Z,989.73
2023-04-11T00:49:31.597Z,989.68
2023-04-11T00:50:31.587Z,989.60
2023-04-11T00:51:31.581Z,989.55
2023-04-11T00:52:31.562Z,989.52
2023-04-11T00:53:31.538Z,989.45
2023-04-11T00:54:31.546Z,989.34
2023-04-11T00:55:31.507Z,989.30
2023-04-11T00:56:31.498Z,989.32
2023-04-11T00:57:31.476Z,989.37
2023-04-11T00:58:31.464Z,989.44
2023-04-11T00:59:31.443Z,989.51
2023-04-11T01:00:31.447Z,989.51
2023-04-11T01:01:31.429Z,989.55
2023-04-11T01:02:31.533Z,989.55
2023-04-11T01:03:31.546Z,989.66
2023-04-11T01:04:31.385Z,989.75
2023-04-11T01:05:31.366Z,989.77
2023-04-11T01:06:31.347Z,989.76
2023-04-11T01:07:31.329Z,989.74
2023-04-11T01:08:31.316Z,989.64
2023-04-11T01:09:31.311Z,989.61
2023-04-11T01:10:31.279Z,989.56
2023-04-11T01:11:31.261Z,989.54
2023-04-11T01:12:31.249Z,989.61
2023-04-11T01:13:31.233Z,989.63
2023-04-11T01:14:31.225Z,989.64
2023-04-11T01:15:31.203Z,989.55
2023-04-11T01:16:31.217Z,989.52
2023-04-11T01:17:31.189Z,989.52
2023-04-11T01:18:31.167Z,989.59
2023-04-11T01:19:31.150Z,989.66
2023-04-11T01:20:31.134Z,989.67
2023-04-11T01:21:31.118Z,989.65
2023-04-11T01:22:31.098Z,989.69
2023-04-11T01:23:31.097Z,989.65
2023-04-11T01:24:31.064Z,989.66
2023-04-11T01:25:31.060Z,989.75
2023-04-11T01:26:31.060Z,989.78
2023-04-11T01:27:31.021Z,989.80
2023-04-11T01:28:31.012Z,989.78
2023-04-11T01:29:30.994Z,989.76
2023-04-11T01:30:31.115Z,989.80
2023-04-11T01:31:30.955Z,989.83
2023-04-11T01:32:30.987Z,990.00
2023-04-11T01:33:30.922Z,990.05
2023-04-11T01:34:30.917Z,990.16
2023-04-11T01:35:30.958Z,990.19
2023-04-11T01:36:30.886Z,990.20
2023-04-11T01:37:30.872Z,990.16
2023-04-11T01:38:30.856Z,990.08
2023-04-11T01:39:30.836Z,990.08
2023-04-11T01:40:30.815Z,990.04
2023-04-11T01:41:30.802Z,990.00
2023-04-11T01:42:30.782Z,989.99
2023-04-11T01:43:30.763Z,989.96
2023-04-11T01:44:30.761Z,989.90
2023-04-11T01:45:30.753Z,989.93
2023-04-11T01:46:30.732Z,989.89
2023-04-11T01:47:30.784Z,989.93
2023-04-11T01:48:30.816Z,989.95
2023-04-11T01:49:30.679Z,990.02
2023-04-11T01:50:30.660Z,990.09
2023-04-11T01:51:30.660Z,990.07
2023-04-11T01:52:30.625Z,990.06
2023-04-11T01:53:30.604Z,990.10
2023-04-11T01:54:30.602Z,990.15
2023-04-11T01:55:30.574Z,990.13
2023-04-11T01:56:30.561Z,990.17
2023-04-11T01:57:30.545Z,990.20
2023-04-11T01:58:30.533Z,990.22
2023-04-11T01:59:30.514Z,990.17
2023-04-11T02:00:30.498Z,990.21
2023-04-11T02:01:30.524Z,990.28
2023-04-11T02:02:30.593Z,990.29
2023-04-11T02:03:30.715Z,990.32
2023-04-11T02:04:30.434Z,990.30
2023-04-11T02:05:30.417Z,990.29
2023-04-11T02:06:30.408Z,990.30
2023-04-11T02:07:30.384Z,990.33
2023-04-11T02:08:30.369Z,990.28
2023-04-11T02:09:30.358Z,990.29
2023-04-11T02:10:30.351Z,990.34
2023-04-11T02:11:30.334Z,990.40
2023-04-11T02:12:30.322Z,990.46
2023-04-11T02:13:30.293Z,990.42
2023-04-11T02:14:30.274Z,990.44
2023-04-11T02:15:30.296Z,990.46
2023-04-11T02:16:30.326Z,990.45
2023-04-11T02:17:30.276Z,990.46
2023-04-11T02:18:30.218Z,990.44
2023-04-11T02:19:30.209Z,990.42
2023-04-11T02:20:30.182Z,990.42
2023-04-11T02:21:30.176Z,990.41
2023-04-11T02:22:30.154Z,990.43
2023-04-11T02:23:30.152Z,990.46
2023-04-11T02:24:30.129Z,990.46
2023-04-11T02:25:30.109Z,990.50
2023-04-11T02:26:30.092Z,990.56
2023-04-11T02:27:30.076Z,990.64
2023-04-11T02:28:30.068Z,990.71
2023-04-11T02:29:30.042Z,990.64
2023-04-11T02:30:30.042Z,990.62
2023-04-11T02:31:30.117Z,990.58
2023-04-11T02:32:30.008Z,990.60
2023-04-11T02:33:29.989Z,990.58
2023-04-11T02:34:30.003Z,990.58
2023-04-11T02:35:29.966Z,990.60
2023-04-11T02:36:29.955Z,990.58
2023-04-11T02:37:29.913Z,990.59
2023-04-11T02:38:29.908Z,990.57
2023-04-11T02:39:29.882Z,990.51
2023-04-11T02:40:29.870Z,990.42
2023-04-11T02:41:29.851Z,990.46
2023-04-11T02:42:29.847Z,990.44
2023-04-11T02:43:29.818Z,990.44
2023-04-11T02:44:29.804Z,990.46
2023-04-11T02:45:29.790Z,990.47
2023-04-11T02:46:29.831Z,990.46
2023-04-11T02:47:29.810Z,990.48
2023-04-11T02:48:29.743Z,990.49
2023-04-11T02:49:29.726Z,990.49
2023-04-11T02:50:29.716Z,990.50
2023-04-11T02:51:29.690Z,990.49
2023-04-11T02:52:29.674Z,990.45
2023-04-11T02:53:29.663Z,990.43
2023-04-11T02:54:29.639Z,990.47
2023-04-11T02:55:29.640Z,990.41
2023-04-11T02:56:29.607Z,990.42
2023-04-11T02:57:29.596Z,990.44
2023-04-11T02:58:29.648Z,990.39
2023-04-11T02:59:29.563Z,990.37
2023-04-11T03:00:29.547Z,990.43
2023-04-11T03:01:29.571Z,990.42
2023-04-11T03:02:29.640Z,990.42
2023-04-11T03:03:29.577Z,990.37
2023-04-11T03:04:29.546Z,990.38
2023-04-11T03:05:29.461Z,990.37
2023-04-11T03:06:29.451Z,990.40
2023-04-11T03:07:29.433Z,990.38
2023-04-11T03:08:29.454Z,990.38
2023-04-11T03:09:29.397Z,990.35
2023-04-11T03:10:29.384Z,990.35
2023-04-11T03:11:29.371Z,990.33
2023-04-11T03:12:29.354Z,990.28
2023-04-11T03:13:29.336Z,990.32
2023-04-11T03:14:29.317Z,990.33
2023-04-11T03:15:29.307Z,990.36
2023-04-11T03:16:29.326Z,990.37
2023-04-11T03:17:29.284Z,990.39
2023-04-11T03:18:29.319Z,990.37
2023-04-11T03:19:29.239Z,990.48
2023-04-11T03:20:29.219Z,990.43
2023-04-11T03:21:29.208Z,990.44
2023-04-11T03:22:29.190Z,990.45
2023-04-11T03:23:29.174Z,990.45
2023-04-11T03:24:29.158Z,990.48
2023-04-11T03:25:29.139Z,990.52
2023-04-11T03:26:29.123Z,990.55
2023-04-11T03:27:29.112Z,990.50
2023-04-11T03:28:29.093Z,990.48
2023-04-11T03:29:29.082Z,990.45
2023-04-11T03:30:29.063Z,990.40
2023-04-11T03:31:29.076Z,990.38
2023-04-11T03:32:29.050Z,990.34
2023-04-11T03:33:29.013Z,990.34
2023-04-11T03:34:28.995Z,990.35
2023-04-11T03:35:28.980Z,990.29
2023-04-11T03:36:28.969Z,990.29
2023-04-11T03:37:28.945Z,990.25
2023-04-11T03:38:28.933Z,990.25
2023-04-11T03:39:28.929Z,990.22
2023-04-11T03:40:28.904Z,990.15
2023-04-11T03:41:28.882Z,990.10
2023-04-11T03:42:28.869Z,990.14
2023-04-11T03:43:28.857Z,990.11
2023-04-11T03:44:28.837Z,990.22
2023-04-11T03:45:28.823Z,990.22
2023-04-11T03:46:28.845Z,990.20
2023-04-11T03:47:28.819Z,990.29
2023-04-11T03:48:28.771Z,990.29
2023-04-11T03:49:28.751Z,990.30
2023-04-11T03:50:28.751Z,990.30
2023-04-11T03:51:28.729Z,990.32
2023-04-11T03:52:28.705Z,990.29
2023-04-11T03:53:28.690Z,990.35
2023-04-11T03:54:28.678Z,990.36
2023-04-11T03:55:28.686Z,990.33
2023-04-11T03:56:28.645Z,990.39
2023-04-11T03:57:28.622Z,990.32
2023-04-11T03:58:28.608Z,990.28
2023-04-11T03:59:28.601Z,990.16
2023-04-11T04:00:28.569Z,990.16
2023-04-11T04:01:28.946Z,990.22
2023-04-11T04:02:28.729Z,990.28
2023-04-11T04:03:28.704Z,990.32
2023-04-11T04:04:28.662Z,990.33
2023-04-11T04:05:28.484Z,990.36
2023-04-11T04:06:28.490Z,990.37
2023-04-11T04:07:28.469Z,990.36
2023-04-11T04:08:28.437Z,990.37
2023-04-11T04:09:28.419Z,990.39
2023-04-11T04:10:28.414Z,990.34
2023-04-11T04:11:28.386Z,990.32
2023-04-11T04:12:28.402Z,990.36
2023-04-11T04:13:28.353Z,990.38
2023-04-11T04:14:28.336Z,990.32
2023-04-11T04:15:28.327Z,990.32
2023-04-11T04:16:28.329Z,990.31
2023-04-11T04:17:28.333Z,990.34
2023-04-11T04:18:28.271Z,990.33
2023-04-11T04:19:28.269Z,990.24
2023-04-11T04:20:28.239Z,990.12
2023-04-11T04:21:28.221Z,990.14
2023-04-11T04:22:28.203Z,990.12
2023-04-11T04:23:28.188Z,990.18
2023-04-11T04:24:28.175Z,990.19
2023-04-11T04:25:28.162Z,990.20
2023-04-11T04:26:28.140Z,990.19
2023-04-11T04:27:28.121Z,990.15
2023-04-11T04:28:28.103Z,990.19
2023-04-11T04:29:28.088Z,990.32
2023-04-11T04:30:28.071Z,990.33
2023-04-11T04:31:28.106Z,990.30
2023-04-11T04:32:28.048Z,990.24
2023-04-11T04:33:28.018Z,990.30
2023-04-11T04:34:28.037Z,990.34
2023-04-11T04:35:28.135Z,990.35
2023-04-11T04:36:27.977Z,990.38
2023-04-11T04:37:27.977Z,990.36
2023-04-11T04:38:27.943Z,990.35
2023-04-11T04:39:27.920Z,990.31
2023-04-11T04:40:27.911Z,990.27
2023-04-11T04:41:27.889Z,990.23
2023-04-11T04:42:27.877Z,990.17
2023-04-11T04:43:27.857Z,990.15
2023-04-11T04:44:27.836Z,990.10
2023-04-11T04:45:27.854Z,990.15
2023-04-11T04:46:27.805Z,990.13
2023-04-11T04:47:27.798Z,990.09
2023-04-11T04:48:27.771Z,990.13
2023-04-11T04:49:27.754Z,990.12
2023-04-11T04:50:27.737Z,990.19
2023-04-11T04:51:27.731Z,990.19
2023-04-11T04:52:27.726Z,990.12
2023-04-11T04:53:27.687Z,990.18
2023-04-11T04:54:27.671Z,990.25
2023-04-11T04:55:27.657Z,990.24
2023-04-11T04:56:27.644Z,990.28
2023-04-11T04:57:27.617Z,990.28
2023-04-11T04:58:27.610Z,990.28
2023-04-11T04:59:27.588Z,990.27
2023-04-11T05:00:27.583Z,990.33
2023-04-11T05:01:27.577Z,990.37
2023-04-11T05:02:27.701Z,990.36
2023-04-11T05:03:27.855Z,990.43
2023-04-11T05:04:27.563Z,990.43
2023-04-11T05:05:27.514Z,990.41
2023-04-11T05:06:27.473Z,990.46
2023-04-11T05:07:27.453Z,990.40
2023-04-11T05:08:27.445Z,990.33
2023-04-11T05:09:27.422Z,990.36
2023-04-11T05:10:27.404Z,990.37
2023-04-11T05:11:27.388Z,990.34
2023-04-11T05:12:27.370Z,990.34
2023-04-11T05:13:27.355Z,990.35
2023-04-11T05:14:27.354Z,990.39
2023-04-11T05:15:27.321Z,990.34
2023-04-11T05:16:27.333Z,990.41
2023-04-11T05:17:27.301Z,990.42
2023-04-11T05:18:27.271Z,990.45
2023-04-11T05:19:27.256Z,990.46
2023-04-11T05:20:27.245Z,990.43
2023-04-11T05:21:27.226Z,990.49
2023-04-11T05:22:27.205Z,990.49
2023-04-11T05:23:27.189Z,990.53
2023-04-11T05:24:27.171Z,990.58
2023-04-11T05:25:27.166Z,990.55
2023-04-11T05:26:27.139Z,990.57
2023-04-11T05:27:27.126Z,990.50
2023-04-11T05:28:27.105Z,990.50
2023-04-11T05:29:27.096Z,990.45
2023-04-11T05:30:27.094Z,990.47
2023-04-11T05:31:27.070Z,990.50
2023-04-11T05:32:27.046Z,990.55
2023-04-11T05:33:27.033Z,990.50
2023-04-11T05:34:27.006Z,990.50
2023-04-11T05:35:26.990Z,990.50
2023-04-11T05:36:26.973Z,990.56
2023-04-11T05:37:26.954Z,990.55
2023-04-11T05:38:26.941Z,990.58
2023-04-11T05:39:26.950Z,990.55
2023-04-11T05:40:26.918Z,990.57
2023-04-11T05:41:26.892Z,990.61
2023-04-11T05:42:26.880Z,990.63
2023-04-11T05:43:26.862Z,990.63
2023-04-11T05:44:26.853Z,990.68
2023-04-11T05:45:26.827Z,990.69
2023-04-11T05:46:26.835Z,990.72
2023-04-11T05:47:26.822Z,990.69
2023-04-11T05:48:26.779Z,990.76
2023-04-11T05:49:26.760Z,990.79
2023-04-11T05:50:26.743Z,990.81
2023-04-11T05:51:26.765Z,990.81
2023-04-11T05:52:26.715Z,990.87
2023-04-11T05:53:26.696Z,990.85
2023-04-11T05:54:26.684Z,990.88
2023-04-11T05:55:26.664Z,990.89
2023-04-11T05:56:26.648Z,990.89
2023-04-11T05:57:26.637Z,990.91
2023-04-11T05:58:26.626Z,990.93
2023-04-11T05:59:28.727Z,990.94
2023-04-11T06:00:26.583Z,990.93
2023-04-11T06:01:26.567Z,990.99
2023-04-11T06:02:26.671Z,990.93
2023-04-11T06:03:26.632Z,990.93
2023-04-11T06:04:26.596Z,990.88
2023-04-11T06:05:26.505Z,990.90
2023-04-11T06:06:26.487Z,990.90
2023-04-11T06:07:26.467Z,990.93
2023-04-11T06:08:26.460Z,990.96
2023-04-11T06:09:26.434Z,990.98
2023-04-11T06:10:26.423Z,991.00
2023-04-11T06:11:26.414Z,991.09
2023-04-11T06:12:26.393Z,991.10
2023-04-11T06:13:26.370Z,991.07
2023-04-11T06:14:26.354Z,991.13
2023-04-11T06:15:26.342Z,991.12
2023-04-11T06:16:26.782Z,991.08
2023-04-11T06:17:26.336Z,991.15
2023-04-11T06:18:26.319Z,991.13
2023-04-11T06:19:26.277Z,991.20
2023-04-11T06:20:26.270Z,991.17
2023-04-11T06:21:26.239Z,991.18
2023-04-11T06:22:26.229Z,991.14
2023-04-11T06:23:26.220Z,991.12
2023-04-11T06:24:26.197Z,991.17
2023-04-11T06:25:26.176Z,991.25
2023-04-11T06:26:26.165Z,991.08
2023-04-11T06:27:26.146Z,991.12
2023-04-11T06:28:26.131Z,991.16
2023-04-11T06:29:26.112Z,991.15
2023-04-11T06:30:26.119Z,991.12
2023-04-11T06:31:26.132Z,991.17
2023-04-11T06:32:26.099Z,991.17
2023-04-11T06:33:26.051Z,991.15
2023-04-11T06:34:26.044Z,991.20
2023-04-11T06:35:26.042Z,991.21
2023-04-11T06:36:26.006Z,991.25
2023-04-11T06:37:25.990Z,991.25
2023-04-11T06:38:25.973Z,991.28
2023-04-11T06:39:25.960Z,991.28
2023-04-11T06:40:25.946Z,991.27
2023-04-11T06:41:25.932Z,991.24
2023-04-11T06:42:25.912Z,991.29
2023-04-11T06:43:25.920Z,991.34
2023-04-11T06:44:25.937Z,991.31
2023-04-11T06:45:25.874Z,991.35
2023-04-11T06:46:25.857Z,991.39
2023-04-11T06:47:25.857Z,991.39
2023-04-11T06:48:25.822Z,991.42
2023-04-11T06:49:25.814Z,991.43
2023-04-11T06:50:25.792Z,991.42
2023-04-11T06:51:25.769Z,991.49
2023-04-11T06:52:27.710Z,991.53
2023-04-11T06:53:25.744Z,991.49
2023-04-11T06:54:25.727Z,991.54
2023-04-11T06:55:25.709Z,991.54
2023-04-11T06:56:25.697Z,991.56
2023-04-11T06:57:25.683Z,991.57
2023-04-11T06:58:25.665Z,991.55
2023-04-11T06:59:25.654Z,991.52
2023-04-11T07:00:25.641Z,991.61
2023-04-11T07:01:25.764Z,991.58
2023-04-11T07:02:25.811Z,991.58
2023-04-11T07:03:25.813Z,991.61
2023-04-11T07:04:25.631Z,991.61
2023-04-11T07:05:25.554Z,991.67
2023-04-11T07:06:25.542Z,991.73
2023-04-11T07:07:25.528Z,991.75
2023-04-11T07:08:25.509Z,991.75
2023-04-11T07:09:25.517Z,991.76
2023-04-11T07:10:25.494Z,991.74
2023-04-11T07:11:25.467Z,991.76
2023-04-11T07:12:25.449Z,991.81
2023-04-11T07:13:25.434Z,991.73
2023-04-11T07:14:25.419Z,991.74
2023-04-11T07:15:25.421Z,991.72
2023-04-11T07:16:25.389Z,991.80
2023-04-11T07:17:25.402Z,991.77
2023-04-11T07:18:25.356Z,991.79
2023-04-11T07:19:25.339Z,991.86
2023-04-11T07:20:25.326Z,991.82
2023-04-11T07:21:25.312Z,991.85
2023-04-11T07:22:25.309Z,991.85
2023-04-11T07:23:25.279Z,991.86
2023-04-11T07:24:25.288Z,991.89
2023-04-11T07:25:25.254Z,991.87
2023-04-11T07:26:25.233Z,991.88
2023-04-11T07:27:25.224Z,991.84
2023-04-11T07:28:25.226Z,991.87
2023-04-11T07:29:25.197Z,991.81
2023-04-11T07:30:25.192Z,991.81
2023-04-11T07:31:25.272Z,991.86
2023-04-11T07:32:25.179Z,991.85
2023-04-11T07:33:25.134Z,991.84
2023-04-11T07:34:25.130Z,991.90
2023-04-11T07:35:25.104Z,991.96
2023-04-11T07:36:25.096Z,991.98
2023-04-11T07:37:25.076Z,992.00
2023-04-11T07:38:25.066Z,991.99
2023-04-11T07:39:25.075Z,992.00
2023-04-11T07:40:25.033Z,992.00
2023-04-11T07:41:25.028Z,992.01
2023-04-11T07:42:25.011Z,992.03
2023-04-11T07:43:25.001Z,992.08
2023-04-11T07:44:24.979Z,992.06
2023-04-11T07:45:24.994Z,992.00
2023-04-11T07:46:24.959Z,992.02
2023-04-11T07:47:24.956Z,991.98
2023-04-11T07:48:24.927Z,991.98
2023-04-11T07:49:24.914Z,992.03
2023-04-11T07:50:24.905Z,991.99
2023-04-11T07:51:24.897Z,992.02
2023-04-11T07:52:24.874Z,992.00
2023-04-11T07:53:24.863Z,992.05
2023-04-11T07:54:24.851Z,992.05
2023-04-11T07:55:24.848Z,992.03
2023-04-11T07:56:24.823Z,992.04
2023-04-11T07:57:24.822Z,992.07
2023-04-11T07:58:24.800Z,992.15
2023-04-11T07:59:24.795Z,992.07
2023-04-11T08:00:24.785Z,992.15
2023-04-11T08:01:24.761Z,992.19
2023-04-11T08:02:24.866Z,992.15
2023-04-11T08:03:24.992Z,992.11
2023-04-11T08:04:24.831Z,992.10
2023-04-11T08:05:24.780Z,992.11
2023-04-11T08:06:24.700Z,992.18
2023-04-11T08:07:24.693Z,992.16
2023-04-11T08:08:24.677Z,992.20
2023-04-11T08:09:24.666Z,992.19
2023-04-11T08:10:24.688Z,992.20
2023-04-11T08:11:24.634Z,992.24
2023-04-11T08:12:24.625Z,992.22
2023-04-11T08:13:24.623Z,992.21
2023-04-11T08:14:24.612Z,992.25
2023-04-11T08:15:24.587Z,992.32
2023-04-11T08:16:24.576Z,992.18
2023-04-11T08:17:28.182Z,992.17
2023-04-11T08:18:24.569Z,992.18
2023-04-11T08:19:24.551Z,992.21
2023-04-11T08:20:24.555Z,992.23
2023-04-11T08:21:24.505Z,992.31
2023-04-11T08:22:24.507Z,992.29
2023-04-11T08:23:24.491Z,992.30
2023-04-11T08:24:24.473Z,992.40
2023-04-11T08:25:24.461Z,992.44
2023-04-11T08:26:24.447Z,992.44
2023-04-11T08:27:24.430Z,992.48
2023-04-11T08:28:24.431Z,992.40
2023-04-11T08:29:24.409Z,992.47
2023-04-11T08:30:24.400Z,992.42
2023-04-11T08:31:24.406Z,992.44
2023-04-11T08:32:24.419Z,992.52
2023-04-11T08:33:24.488Z,992.52
2023-04-11T08:34:24.361Z,992.43
2023-04-11T08:35:24.352Z,992.44
2023-04-11T08:36:24.359Z,992.48
2023-04-11T08:37:24.326Z,992.39
2023-04-11T08:38:24.356Z,992.42
2023-04-11T08:39:24.311Z,992.39
2023-04-11T08:40:25.851Z,992.39
2023-04-11T08:41:24.289Z,992.40
2023-04-11T08:42:24.289Z,992.39
2023-04-11T08:43:24.287Z,992.37
2023-04-11T08:44:24.265Z,992.40
2023-04-11T08:45:24.262Z,992.39
2023-04-11T08:46:24.257Z,992.31
2023-04-11T08:47:24.500Z,992.36
2023-04-11T08:48:24.234Z,992.40
2023-04-11T08:49:24.214Z,992.42
2023-04-11T08:50:24.247Z,992.35
2023-04-11T08:51:24.203Z,992.38
2023-04-11T08:52:24.191Z,992.42
2023-04-11T08:53:24.174Z,992.46
2023-04-11T08:54:24.160Z,992.44
2023-04-11T08:55:24.149Z,992.52
2023-04-11T08:56:24.139Z,992.55
2023-04-11T08:57:24.123Z,992.52
2023-04-11T08:58:24.119Z,992.44
2023-04-11T08:59:24.110Z,992.45
2023-04-11T09:00:24.156Z,992.44
2023-04-11T09:01:24.130Z,992.44
2023-04-11T09:02:24.240Z,992.32
2023-04-11T09:03:24.207Z,992.35
2023-04-11T09:04:24.062Z,992.34
2023-04-11T09:05:24.032Z,992.30
2023-04-11T09:06:24.018Z,992.32
2023-04-11T09:07:24.003Z,992.31
2023-04-11T09:08:23.995Z,992.30
2023-04-11T09:09:23.978Z,992.26
2023-04-11T09:10:24.053Z,992.28
2023-04-11T09:11:23.952Z,992.27
2023-04-11T09:12:23.941Z,992.26
2023-04-11T09:13:24.028Z,992.31
2023-04-11T09:14:24.134Z,992.30
2023-04-11T09:15:23.918Z,992.34
2023-04-11T09:16:23.926Z,992.36
2023-04-11T09:17:23.935Z,992.35
2023-04-11T09:18:23.865Z,992.42
2023-04-11T09:19:23.857Z,992.39
2023-04-11T09:20:23.875Z,992.44
2023-04-11T09:21:23.832Z,992.47
2023-04-11T09:22:23.822Z,992.46
2023-04-11T09:23:26.098Z,992.56
2023-04-11T09:24:23.793Z,992.44
2023-04-11T09:25:23.809Z,992.49
2023-04-11T09:26:24.242Z,992.44
2023-04-11T09:27:23.753Z,992.61
2023-04-11T09:28:23.765Z,992.59
2023-04-11T09:29:23.728Z,992.53
2023-04-11T09:30:23.765Z,992.57
2023-04-11T09:31:23.727Z,992.56
2023-04-11T09:32:24.717Z,992.57
2023-04-11T09:33:23.698Z,992.52
2023-04-11T09:34:23.675Z,992.54
2023-04-11T09:35:23.657Z,992.56
2023-04-11T09:36:23.646Z,992.57
2023-04-11T09:37:23.638Z,992.59
2023-04-11T09:38:23.625Z,992.58
2023-04-11T09:39:23.611Z,992.58
2023-04-11T09:40:23.594Z,992.60
2023-04-11T09:41:23.590Z,992.63
2023-04-11T09:42:23.571Z,992.68
2023-04-11T09:43:23.570Z,992.71
2023-04-11T09:44:23.547Z,992.67
2023-04-11T09:45:23.566Z,992.77
2023-04-11T09:46:23.579Z,992.77
2023-04-11T09:47:23.560Z,992.76
2023-04-11T09:48:32.015Z,992.80
2023-04-11T09:49:23.492Z,992.78
2023-04-11T09:50:23.501Z,992.79
2023-04-11T09:51:35.708Z,992.74
2023-04-11T09:52:23.459Z,992.72
2023-04-11T09:53:23.446Z,992.69
2023-04-11T09:54:23.432Z,992.63
2023-04-11T09:55:23.424Z,992.70
2023-04-11T09:56:23.411Z,992.69
2023-04-11T09:57:23.404Z,992.73
2023-04-11T09:58:23.386Z,992.72
2023-04-11T09:59:23.374Z,992.71
2023-04-11T10:00:23.365Z,992.77
2023-04-11T10:01:23.372Z,992.69
2023-04-11T10:02:23.630Z,992.67
2023-04-11T10:03:23.543Z,992.72
2023-04-11T10:04:23.358Z,992.74
2023-04-11T10:05:23.305Z,992.73
2023-04-11T10:06:23.322Z,992.71
2023-04-11T10:07:23.286Z,992.76
2023-04-11T10:08:23.274Z,992.74
2023-04-11T10:09:23.260Z,992.76
2023-04-11T10:10:23.268Z,992.82
2023-04-11T10:11:24.313Z,992.71
2023-04-11T10:12:23.242Z,992.76
2023-04-11T10:13:23.217Z,992.80
2023-04-11T10:14:23.211Z,992.79
2023-04-11T10:15:23.199Z,992.74
2023-04-11T10:16:23.271Z,992.77
2023-04-11T10:17:24.392Z,992.80
2023-04-11T10:18:23.174Z,992.76
2023-04-11T10:19:23.164Z,992.79
2023-04-11T10:20:23.159Z,992.77
2023-04-11T10:21:23.147Z,992.76
2023-04-11T10:22:23.142Z,992.75
2023-04-11T10:23:23.134Z,992.73
2023-04-11T10:24:23.142Z,992.78
2023-04-11T10:25:23.123Z,992.76
2023-04-11T10:26:23.120Z,992.78
2023-04-11T10:27:23.118Z,992.73
2023-04-11T10:28:23.115Z,992.76
2023-04-11T10:29:23.107Z,992.73
2023-04-11T10:30:23.109Z,992.81
2023-04-11T10:31:23.123Z,992.84
2023-04-11T10:32:23.142Z,992.75
2023-04-11T10:33:23.114Z,992.68
2023-04-11T10:34:23.123Z,992.68
2023-04-11T10:35:23.095Z,992.66
2023-04-11T10:36:23.181Z,992.72
2023-04-11T10:37:23.101Z,992.63
2023-04-11T10:38:23.095Z,992.58
2023-04-11T10:39:23.095Z,992.62
2023-04-11T10:40:23.094Z,992.60
2023-04-11T10:41:23.164Z,992.68
2023-04-11T10:42:23.121Z,992.68
2023-04-11T10:43:23.096Z,992.68
2023-04-11T10:44:23.096Z,992.65
2023-04-11T10:45:23.095Z,992.60
2023-04-11T10:46:23.156Z,992.60
2023-04-11T10:47:23.106Z,992.69
2023-04-11T10:48:23.102Z,992.64
2023-04-11T10:49:23.094Z,992.64
2023-04-11T10:50:23.086Z,992.56
2023-04-11T10:51:23.080Z,992.63
2023-04-11T10:52:23.149Z,992.68
2023-04-11T10:53:23.073Z,992.67
2023-04-11T10:54:23.066Z,992.64
2023-04-11T10:55:23.077Z,992.61
2023-04-11T10:56:23.063Z,992.58
2023-04-11T10:57:23.267Z,992.57
2023-04-11T10:58:23.063Z,992.60
2023-04-11T10:59:23.051Z,992.65
2023-04-11T11:00:23.039Z,992.74
2023-04-11T11:01:32.341Z,992.65
2023-04-11T11:02:23.136Z,992.58
2023-04-11T11:03:23.161Z,992.57
2023-04-11T11:04:23.203Z,992.53
2023-04-11T11:05:23.008Z,992.50
2023-04-11T11:06:22.997Z,992.50
2023-04-11T11:07:22.991Z,992.52
2023-04-11T11:08:22.985Z,992.57
2023-04-11T11:09:22.982Z,992.59
2023-04-11T11:10:22.962Z,992.61
2023-04-11T11:11:22.957Z,992.56
2023-04-11T11:12:22.952Z,992.60
2023-04-11T11:13:22.935Z,992.62
2023-04-11T11:14:22.928Z,992.60
2023-04-11T11:15:22.922Z,992.63
2023-04-11T11:16:22.941Z,992.71
2023-04-11T11:17:22.964Z,992.64
2023-04-11T11:18:22.893Z,992.61
2023-04-11T11:19:22.908Z,992.54
2023-04-11T11:20:22.886Z,992.55
2023-04-11T11:21:27.341Z,992.64
2023-04-11T11:22:22.861Z,992.62
2023-04-11T11:23:22.850Z,992.68
2023-04-11T11:24:22.840Z,992.71
2023-04-11T11:25:22.875Z,992.79
2023-04-11T11:26:22.822Z,992.79
2023-04-11T11:27:22.942Z,992.74
2023-04-11T11:28:22.816Z,992.77
2023-04-11T11:29:22.794Z,992.77
2023-04-11T11:30:22.793Z,992.79
2023-04-11T11:31:22.800Z,992.78
2023-04-11T11:32:22.801Z,992.78
2023-04-11T11:33:22.762Z,992.78
2023-04-11T11:34:24.267Z,992.81
2023-04-11T11:35:22.757Z,992.79
2023-04-11T11:36:22.789Z,992.86
2023-04-11T11:37:22.748Z,992.85
2023-04-11T11:38:22.748Z,992.77
2023-04-11T11:39:23.347Z,992.75
2023-04-11T11:40:22.749Z,992.75
2023-04-11T11:41:22.721Z,992.76
2023-04-11T11:42:22.730Z,992.80
2023-04-11T11:43:22.725Z,992.84
2023-04-11T11:44:22.751Z,992.90
2023-04-11T11:45:22.736Z,992.90
2023-04-11T11:46:22.850Z,992.85
2023-04-11T11:47:22.759Z,992.86
2023-04-11T11:48:22.702Z,992.85
2023-04-11T11:49:22.698Z,992.89
2023-04-11T11:50:22.709Z,993.01
2023-04-11T11:51:22.707Z,992.97
2023-04-11T11:52:22.703Z,992.94
2023-04-11T11:53:22.738Z,992.91
2023-04-11T11:54:22.699Z,992.94
2023-04-11T11:55:22.695Z,992.97
2023-04-11T11:56:22.698Z,993.04
2023-04-11T11:57:22.849Z,992.97
2023-04-11T11:58:22.689Z,992.95
2023-04-11T11:59:22.694Z,993.05
2023-04-11T12:00:22.694Z,993.08
2023-04-11T12:01:22.696Z,993.01
2023-04-11T12:02:22.816Z,993.00
2023-04-11T12:03:22.853Z,992.98
2023-04-11T12:04:22.838Z,992.90
2023-04-11T12:05:22.719Z,992.95
2023-04-11T12:06:22.684Z,992.94
2023-04-11T12:07:22.708Z,992.84
2023-04-11T12:08:22.680Z,992.85
2023-04-11T12:09:22.679Z,992.84
2023-04-11T12:10:22.817Z,992.82
2023-04-11T12:11:22.724Z,992.84
2023-04-11T12:12:22.674Z,992.81
2023-04-11T12:13:22.774Z,992.86
2023-04-11T12:14:22.672Z,992.75
2023-04-11T12:15:22.680Z,992.80
2023-04-11T12:16:22.776Z,992.80
2023-04-11T12:17:22.762Z,992.83
2023-04-11T12:20:07.516Z,992.73
2023-04-11T12:21:07.481Z,992.75
2023-04-11T12:23:13.013Z,992.77
2023-04-11T12:24:12.990Z,992.88
2023-04-11T12:26:19.074Z,992.83
2023-04-11T12:27:18.520Z,992.78
2023-04-11T12:28:18.467Z,992.69
2023-04-11T12:29:18.571Z,992.80
2023-04-11T12:30:18.468Z,992.76
2023-04-11T12:31:18.537Z,992.73
2023-04-11T12:32:18.451Z,992.70